Terminal Aerodrome Forecast
Issued by NWS

Home | Current Version | Previous Version | Text Only | Print | Product List | Glossary On
Versions: 1 2 3 4 5 6 7 8 9 10 11 12 13
000
FTUS46 KSGX 171700
TAFTRM
TAF
KTRM 171720Z 1718/1818 VRB05KT P6SM FEW080
     FM171900 14011KT P6SM VCTS SCT070CB SCT120
     FM180300 VRB06KT P6SM FEW080=

USA.gov is the U.S. government's official web portal to all federal, state and local government web resources and services.